Terminal Aerodrome Forecast
Issued by NWS Riverton, WY

Home | Current Version | Previous Version | Text Only | Print | Product List | Glossary On
Versions: 1 2 3 4 5 6 7 8 9 10 11 12 13 14 15 16 17 18 19
000
FTUS45 KRIW 231720
TAFRIW
TAF
KRIW 231720Z 2318/2418 VRB04KT P6SM VCFG BKN140
     FM232100 36008KT P6SM VCSH SCT030 BKN050
     FM232300 02010KT 3SM -SN OVC015
     FM240200 02010G16KT 1/2SM SN BKN008 OVC015
     FM241200 02008KT 2SM -SN SCT009 BKN015 OVC025=

USA.gov is the U.S. government's official web portal to all federal, state and local government web resources and services.